createdAt,value
2023-04-15T00:01:20.984Z,3.50
2023-04-15T00:03:50.146Z,3.33
2023-04-15T00:06:19.515Z,3.50
2023-04-15T00:08:48.354Z,3.07
2023-04-15T00:11:20.037Z,3.43
2023-04-15T00:13:48.522Z,3.40
2023-04-15T00:16:17.046Z,3.70
2023-04-15T00:18:46.205Z,3.20
2023-04-15T00:21:14.849Z,3.33
2023-04-15T00:23:43.312Z,2.97
2023-04-15T00:26:12.145Z,3.10
2023-04-15T00:28:42.297Z,3.20
2023-04-15T00:31:11.353Z,2.67
2023-04-15T00:33:40.710Z,3.00
2023-04-15T00:36:10.341Z,3.07
2023-04-15T00:38:40.692Z,3.00
2023-04-15T00:41:09.595Z,3.27
2023-04-15T00:43:38.291Z,2.93
2023-04-15T00:46:09.915Z,3.37
2023-04-15T00:48:39.123Z,2.80
2023-04-15T00:51:07.980Z,3.00
2023-04-15T00:53:36.447Z,2.97
2023-04-15T00:56:08.060Z,2.87
2023-04-15T00:58:37.471Z,3.17
2023-04-15T01:01:07.833Z,3.03
2023-04-15T01:03:36.682Z,3.13
2023-04-15T01:06:05.751Z,3.70
2023-04-15T01:08:34.482Z,4.30
2023-04-15T01:11:04.464Z,3.90
2023-04-15T01:13:35.257Z,4.07
2023-04-15T01:16:04.363Z,3.80
2023-04-15T01:18:34.829Z,3.60
2023-04-15T01:21:03.876Z,3.93
2023-04-15T01:23:33.399Z,3.80
2023-04-15T01:26:03.876Z,3.80
2023-04-15T01:28:32.593Z,3.27
2023-04-15T01:31:09.223Z,2.93
2023-04-15T01:33:38.284Z,3.47
2023-04-15T01:36:08.681Z,3.13
2023-04-15T01:38:38.374Z,3.10
2023-04-15T01:41:09.007Z,3.07
2023-04-15T01:43:38.225Z,2.87
2023-04-15T01:46:07.304Z,3.10
2023-04-15T01:48:36.257Z,2.80
2023-04-15T01:51:04.874Z,2.90
2023-04-15T01:53:34.378Z,2.90
2023-04-15T01:56:02.932Z,2.60
2023-04-15T01:58:32.746Z,3.20
2023-04-15T02:01:04.368Z,2.80
2023-04-15T02:03:33.173Z,2.93
2023-04-15T02:06:01.948Z,2.90
2023-04-15T02:08:31.591Z,3.00
2023-04-15T02:11:01.247Z,3.00
2023-04-15T02:13:29.809Z,3.20
2023-04-15T02:16:00.521Z,2.90
2023-04-15T02:18:28.988Z,2.77
2023-04-15T02:20:58.882Z,3.00
2023-04-15T02:23:27.927Z,2.60
2023-04-15T02:25:56.282Z,2.73
2023-04-15T02:28:27.741Z,2.90
2023-04-15T02:30:57.993Z,2.90
2023-04-15T02:33:28.086Z,2.93
2023-04-15T02:35:56.642Z,2.70
2023-04-15T02:38:25.447Z,3.10
2023-04-15T02:40:53.889Z,3.20
2023-04-15T02:43:22.603Z,2.97
2023-04-15T02:45:51.801Z,2.80
2023-04-15T02:48:20.940Z,2.80
2023-04-15T02:50:51.958Z,2.90
2023-04-15T02:53:21.223Z,3.53
2023-04-15T02:55:49.673Z,2.83
2023-04-15T02:58:18.146Z,2.40
2023-04-15T03:00:46.990Z,2.37
2023-04-15T03:03:16.332Z,2.73
2023-04-15T03:05:46.703Z,2.70
2023-04-15T03:08:17.009Z,2.37
2023-04-15T03:10:45.833Z,3.17
2023-04-15T03:13:14.556Z,3.10
2023-04-15T03:15:47.096Z,2.87
2023-04-15T03:18:15.789Z,2.63
2023-04-15T03:20:44.623Z,3.10
2023-04-15T03:23:13.465Z,3.33
2023-04-15T03:25:44.191Z,3.03
2023-04-15T03:28:12.673Z,2.93
2023-04-15T03:30:41.243Z,3.20
2023-04-15T03:33:10.299Z,2.83
2023-04-15T03:35:39.114Z,2.50
2023-04-15T03:38:07.588Z,2.30
2023-04-15T03:40:36.747Z,2.63
2023-04-15T03:43:07.069Z,2.43
2023-04-15T03:45:35.875Z,2.80
2023-04-15T03:48:16.657Z,2.97
2023-04-15T03:50:46.815Z,3.27
2023-04-15T03:53:15.743Z,2.83
2023-04-15T03:55:44.984Z,2.80
2023-04-15T03:58:15.156Z,2.93
2023-04-15T04:00:43.719Z,2.70
2023-04-15T04:03:15.832Z,3.13
2023-04-15T04:05:44.686Z,2.83
2023-04-15T04:08:14.259Z,3.00
2023-04-15T04:10:42.744Z,2.90
2023-04-15T04:13:11.463Z,3.00
2023-04-15T04:15:41.459Z,3.20
2023-04-15T04:18:09.962Z,3.00
2023-04-15T04:20:38.491Z,3.07
2023-04-15T04:23:07.276Z,3.23
2023-04-15T04:25:35.545Z,3.40
2023-04-15T04:28:04.241Z,2.50
2023-04-15T04:30:33.229Z,3.50
2023-04-15T04:33:03.525Z,3.57
2023-04-15T04:35:35.213Z,3.00
2023-04-15T04:38:03.857Z,2.50
2023-04-15T04:40:32.775Z,2.87
2023-04-15T04:43:01.918Z,3.03
2023-04-15T04:45:30.310Z,3.00
2023-04-15T04:47:58.842Z,2.77
2023-04-15T04:50:29.053Z,2.90
2023-04-15T04:52:57.435Z,3.03
2023-04-15T04:55:26.169Z,2.87
2023-04-15T04:57:54.741Z,2.60
2023-04-15T05:00:23.553Z,2.80
2023-04-15T05:02:52.319Z,2.90
2023-04-15T05:05:20.956Z,2.60
2023-04-15T05:07:51.349Z,2.57
2023-04-15T05:10:20.515Z,3.10
2023-04-15T05:12:50.045Z,3.13
2023-04-15T05:15:18.442Z,3.20
2023-04-15T05:17:46.990Z,3.13
2023-04-15T05:20:16.077Z,3.40
2023-04-15T05:22:44.932Z,3.57
2023-04-15T05:25:15.423Z,4.00
2023-04-15T05:27:44.267Z,3.80
2023-04-15T05:30:13.814Z,3.73
2023-04-15T05:32:42.898Z,3.60
2023-04-15T05:35:12.016Z,3.87
2023-04-15T05:37:42.125Z,3.60
2023-04-15T05:40:11.633Z,3.57
2023-04-15T05:42:41.633Z,3.83
2023-04-15T05:45:10.598Z,3.80
2023-04-15T05:47:39.325Z,3.77
2023-04-15T05:50:08.910Z,3.90
2023-04-15T05:52:37.700Z,4.13
2023-04-15T05:55:07.204Z,4.33
2023-04-15T05:57:35.965Z,3.80
2023-04-15T06:00:07.033Z,4.30
2023-04-15T06:02:35.824Z,4.10
2023-04-15T06:05:04.425Z,4.30
2023-04-15T06:07:32.878Z,4.10
2023-04-15T06:10:01.663Z,4.70
2023-04-15T06:12:30.430Z,4.60
2023-04-15T06:15:00.287Z,4.30
2023-04-15T06:17:30.662Z,4.53
2023-04-15T06:19:59.171Z,4.40
2023-04-15T06:22:27.835Z,4.60
2023-04-15T06:24:56.374Z,5.00
2023-04-15T06:27:25.040Z,4.67
2023-04-15T06:29:53.802Z,4.93
2023-04-15T06:32:22.650Z,4.53
2023-04-15T06:34:52.375Z,4.50
2023-04-15T06:37:20.913Z,5.07
2023-04-15T06:39:49.962Z,4.20
2023-04-15T06:42:19.206Z,4.57
2023-04-15T06:44:47.823Z,4.63
2023-04-15T06:47:18.168Z,5.23
2023-04-15T06:49:46.980Z,4.67
2023-04-15T06:52:17.866Z,5.50
2023-04-15T06:54:46.781Z,5.80
2023-04-15T06:57:15.504Z,4.50
2023-04-15T06:59:44.404Z,6.00
2023-04-15T07:02:15.245Z,5.37
2023-04-15T07:04:43.752Z,6.00
2023-04-15T07:07:12.603Z,6.17
2023-04-15T07:09:52.367Z,7.00
2023-04-15T07:12:20.947Z,6.00
2023-04-15T07:14:50.424Z,6.00
2023-04-15T07:17:19.392Z,6.90
2023-04-15T07:19:47.843Z,6.63
2023-04-15T07:22:16.580Z,6.00
2023-04-15T07:24:46.774Z,6.30
2023-04-15T07:27:15.239Z,6.70
2023-04-15T07:29:43.956Z,6.30
2023-04-15T07:32:12.769Z,6.57
2023-04-15T07:34:41.666Z,6.07
2023-04-15T07:37:10.076Z,6.40
2023-04-15T07:39:38.910Z,7.00
2023-04-15T07:42:09.300Z,6.83
2023-04-15T07:44:38.335Z,7.83
2023-04-15T07:47:07.052Z,7.60
2023-04-15T07:49:35.746Z,6.60
2023-04-15T07:52:06.003Z,6.40
2023-04-15T07:54:35.179Z,6.87
2023-04-15T07:57:04.229Z,7.60
2023-04-15T07:59:34.722Z,7.40
2023-04-15T08:02:03.642Z,7.80
2023-04-15T08:04:32.702Z,7.30
2023-04-15T08:07:01.637Z,6.80
2023-04-15T08:09:30.092Z,6.57
2023-04-15T08:11:58.352Z,7.03
2023-04-15T08:14:27.392Z,6.70
2023-04-15T08:16:57.680Z,5.87
2023-04-15T08:19:27.916Z,5.43
2023-04-15T08:21:59.697Z,5.63
2023-04-15T08:24:29.130Z,5.57
2023-04-15T08:26:58.320Z,5.77
2023-04-15T08:29:27.724Z,6.50
2023-04-15T08:31:57.707Z,6.23
2023-04-15T08:34:26.865Z,6.47
2023-04-15T08:36:55.676Z,5.73
2023-04-15T08:39:24.447Z,5.87
2023-04-15T08:41:58.499Z,6.00
2023-04-15T08:44:28.536Z,5.70
2023-04-15T08:46:59.042Z,5.60
2023-04-15T08:49:29.789Z,6.17
2023-04-15T08:52:01.888Z,4.93
2023-04-15T08:54:30.854Z,5.13
2023-04-15T08:57:00.801Z,5.63
2023-04-15T08:59:30.764Z,5.87
2023-04-15T09:02:01.409Z,5.40
2023-04-15T09:04:30.278Z,5.23
2023-04-15T09:06:58.683Z,5.25
2023-04-15T09:09:27.721Z,4.87
2023-04-15T09:11:57.170Z,5.40
2023-04-15T09:14:25.836Z,5.30
2023-04-15T09:17:04.332Z,5.10
2023-04-15T09:19:34.952Z,5.27
2023-04-15T09:22:04.559Z,4.47
2023-04-15T09:24:39.638Z,4.20
2023-04-15T09:27:08.644Z,3.70
2023-04-15T09:29:37.674Z,3.60
2023-04-15T09:32:16.162Z,3.60
2023-04-15T09:34:45.096Z,3.67
2023-04-15T09:37:31.259Z,3.47
2023-04-15T09:40:01.047Z,3.87
2023-04-15T09:42:29.802Z,3.90
2023-04-15T09:45:09.644Z,3.70
2023-04-15T09:47:39.784Z,3.70
2023-04-15T09:50:09.447Z,4.17
2023-04-15T09:52:44.542Z,4.50
2023-04-15T09:55:13.875Z,4.03
2023-04-15T09:57:44.486Z,3.90
2023-04-15T10:00:14.391Z,3.87
2023-04-15T10:02:45.397Z,3.33
2023-04-15T10:05:17.047Z,3.60
2023-04-15T10:07:48.401Z,3.60
2023-04-15T10:10:17.296Z,4.10
2023-04-15T10:12:46.507Z,3.60
2023-04-15T10:15:18.554Z,3.60
2023-04-15T10:17:52.661Z,3.80
2023-04-15T10:20:22.360Z,3.27
2023-04-15T10:22:52.515Z,3.97
2023-04-15T10:25:21.247Z,3.73
2023-04-15T10:27:52.491Z,3.73
2023-04-15T10:30:21.604Z,3.70
2023-04-15T10:32:52.765Z,3.80
2023-04-15T10:35:23.250Z,2.97
2023-04-15T10:37:52.002Z,2.60
2023-04-15T10:40:28.804Z,2.80
2023-04-15T10:43:02.547Z,2.40
2023-04-15T10:45:35.175Z,2.70
2023-04-15T10:48:09.584Z,2.57
2023-04-15T10:50:41.539Z,2.37
2023-04-15T10:53:12.833Z,2.97
2023-04-15T10:55:41.594Z,3.30
2023-04-15T10:58:12.207Z,3.30
2023-04-15T11:00:42.257Z,2.83
2023-04-15T11:03:12.725Z,3.10
2023-04-15T11:05:53.479Z,2.53
2023-04-15T11:08:22.599Z,2.87
2023-04-15T11:10:58.115Z,2.10
2023-04-15T11:13:31.835Z,2.20
2023-04-15T11:16:04.283Z,2.20
2023-04-15T11:18:36.082Z,2.30
2023-04-15T11:21:07.296Z,2.40
2023-04-15T11:23:40.020Z,1.90
2023-04-15T11:26:15.515Z,1.70
2023-04-15T11:28:46.605Z,1.50
2023-04-15T11:31:18.115Z,1.50
2023-04-15T11:33:55.202Z,1.67
2023-04-15T11:36:28.315Z,1.30
2023-04-15T11:38:58.944Z,1.60
2023-04-15T11:41:27.628Z,1.50
2023-04-15T11:43:59.035Z,1.43
2023-04-15T11:46:32.483Z,1.90
2023-04-15T11:49:04.871Z,1.60
2023-04-15T11:51:35.501Z,2.00
2023-04-15T11:54:04.466Z,1.80
2023-04-15T11:56:33.542Z,1.63
2023-04-15T11:59:03.348Z,1.80
2023-04-15T12:01:39.487Z,1.50
2023-04-15T12:04:15.051Z,1.87
2023-04-15T12:06:44.209Z,1.60
2023-04-15T12:09:17.019Z,1.23
2023-04-15T12:11:47.564Z,1.33
2023-04-15T12:14:24.505Z,1.00
2023-04-15T12:16:58.323Z,1.00
2023-04-15T12:19:34.769Z,1.27
2023-04-15T12:22:04.484Z,1.00
2023-04-15T12:24:34.393Z,1.20
2023-04-15T12:27:06.998Z,1.00
2023-04-15T12:29:37.367Z,1.20
2023-04-15T12:32:10.748Z,1.10
2023-04-15T12:34:42.939Z,1.30
2023-04-15T12:37:14.645Z,1.30
2023-04-15T12:39:45.429Z,1.20
2023-04-15T12:42:14.064Z,1.20
2023-04-15T12:44:42.832Z,1.37
2023-04-15T12:47:12.839Z,1.40
2023-04-15T12:49:43.290Z,1.10
2023-04-15T12:52:11.757Z,1.60
2023-04-15T12:54:41.658Z,1.80
2023-04-15T12:57:10.347Z,1.50
2023-04-15T12:59:39.092Z,1.33
2023-04-15T13:02:08.432Z,1.43
2023-04-15T13:04:37.273Z,1.00
2023-04-15T13:07:08.073Z,1.50
2023-04-15T13:09:37.021Z,1.10
2023-04-15T13:12:07.363Z,1.30
2023-04-15T13:14:35.931Z,1.30
2023-04-15T13:17:09.383Z,1.23
2023-04-15T13:19:38.080Z,1.30
2023-04-15T13:22:08.794Z,1.23
2023-04-15T13:24:37.443Z,1.20
2023-04-15T13:27:06.226Z,1.27
2023-04-15T13:29:34.841Z,1.30
2023-04-15T13:32:03.368Z,1.30
2023-04-15T13:34:31.810Z,1.17
2023-04-15T13:37:00.380Z,1.40
2023-04-15T13:39:30.337Z,1.43
2023-04-15T13:41:59.185Z,1.70
2023-04-15T13:44:27.656Z,1.80
2023-04-15T13:46:56.433Z,1.53
2023-04-15T13:49:25.087Z,1.60
2023-04-15T13:51:54.198Z,1.60
2023-04-15T13:54:22.668Z,1.30
2023-04-15T13:56:52.705Z,1.60
2023-04-15T13:59:21.398Z,1.63
2023-04-15T14:01:49.936Z,1.40
2023-04-15T14:04:18.902Z,1.40
2023-04-15T14:06:47.997Z,1.30
2023-04-15T14:09:16.669Z,1.33
2023-04-15T14:11:47.598Z,1.20
2023-04-15T14:14:20.060Z,1.20
2023-04-15T14:16:48.884Z,1.80
2023-04-15T14:19:17.859Z,1.73
2023-04-15T14:21:46.773Z,1.87
2023-04-15T14:24:15.356Z,1.80
2023-04-15T14:26:45.411Z,1.77
2023-04-15T14:29:14.046Z,1.40
2023-04-15T14:32:08.595Z,1.83
2023-04-15T14:34:33.890Z,1.23
2023-04-15T14:37:02.386Z,1.60
2023-04-15T14:39:31.297Z,1.50
2023-04-15T14:41:59.964Z,1.50
2023-04-15T14:44:28.809Z,1.43
2023-04-15T14:46:59.144Z,1.33
2023-04-15T14:49:27.793Z,1.60
2023-04-15T14:51:56.275Z,1.90
2023-04-15T14:54:27.122Z,1.93
2023-04-15T14:56:56.160Z,1.80
2023-04-15T14:59:25.101Z,1.97
2023-04-15T15:01:55.101Z,1.80
2023-04-15T15:04:25.541Z,1.90
2023-04-15T15:06:54.263Z,1.87
2023-04-15T15:09:23.912Z,1.53
2023-04-15T15:11:52.571Z,1.50
2023-04-15T15:14:23.508Z,1.90
2023-04-15T15:16:53.493Z,1.40
2023-04-15T15:19:22.339Z,1.43
2023-04-15T15:21:53.104Z,1.20
2023-04-15T15:24:23.114Z,1.10
2023-04-15T15:26:51.570Z,1.40
2023-04-15T15:29:20.025Z,1.27
2023-04-15T15:31:48.850Z,1.40
2023-04-15T15:34:19.323Z,0.90
2023-04-15T15:36:47.924Z,1.10
2023-04-15T15:39:17.794Z,1.03
2023-04-15T15:41:46.398Z,1.00
2023-04-15T15:44:15.523Z,1.37
2023-04-15T15:46:44.003Z,1.20
2023-04-15T15:49:14.760Z,1.30
2023-04-15T15:51:43.622Z,1.20
2023-04-15T15:54:12.227Z,1.17
2023-04-15T15:56:42.434Z,1.20
2023-04-15T15:59:11.265Z,1.33
2023-04-15T16:01:39.916Z,1.33
2023-04-15T16:04:09.331Z,1.43
2023-04-15T16:06:37.770Z,1.67
2023-04-15T16:09:06.789Z,1.07
2023-04-15T16:11:36.329Z,0.90
2023-04-15T16:14:06.594Z,0.80
2023-04-15T16:16:35.318Z,1.03
2023-04-15T16:19:04.259Z,0.93
2023-04-15T16:21:33.893Z,1.00
2023-04-15T16:24:03.092Z,1.07
2023-04-15T16:26:31.860Z,1.00
2023-04-15T16:29:00.523Z,0.90
2023-04-15T16:31:30.806Z,1.00
2023-04-15T16:34:00.187Z,1.00
2023-04-15T16:36:29.249Z,1.10
2023-04-15T16:38:57.938Z,1.37
2023-04-15T16:41:26.371Z,1.17
2023-04-15T16:43:55.429Z,1.13
2023-04-15T16:46:24.247Z,1.10
2023-04-15T16:48:54.350Z,1.40
2023-04-15T16:51:23.100Z,1.33
2023-04-15T16:53:52.008Z,1.30
2023-04-15T16:56:22.140Z,1.27
2023-04-15T16:58:51.260Z,1.33
2023-04-15T17:01:20.451Z,1.77
2023-04-15T17:03:49.973Z,1.33
2023-04-15T17:06:20.272Z,1.47
2023-04-15T17:08:49.001Z,1.30
2023-04-15T17:11:17.769Z,1.93
2023-04-15T17:13:46.784Z,1.57
2023-04-15T17:16:15.299Z,1.40
2023-04-15T17:18:43.931Z,1.30
2023-04-15T17:21:13.253Z,1.53
2023-04-15T17:23:43.375Z,1.40
2023-04-15T17:26:12.054Z,1.40
2023-04-15T17:28:40.800Z,1.40
2023-04-15T17:31:09.708Z,1.30
2023-04-15T17:33:56.498Z,1.30
2023-04-15T17:36:28.055Z,1.17
2023-04-15T17:39:00.131Z,1.37
2023-04-15T17:41:28.912Z,1.57
2023-04-15T17:43:57.433Z,1.40
2023-04-15T17:46:27.298Z,1.87
2023-04-15T17:48:55.949Z,1.87
2023-04-15T17:51:26.697Z,1.30
2023-04-15T17:53:55.138Z,1.47
2023-04-15T17:56:25.450Z,1.70
2023-04-15T17:58:54.391Z,1.60
2023-04-15T18:01:23.905Z,1.40
2023-04-15T18:03:52.828Z,1.30
2023-04-15T18:06:22.307Z,1.43
2023-04-15T18:08:51.091Z,1.20
2023-04-15T18:11:20.236Z,1.43
2023-04-15T18:13:50.091Z,1.27
2023-04-15T18:16:19.097Z,1.40
2023-04-15T18:18:49.135Z,1.60
2023-04-15T18:21:17.615Z,1.53
2023-04-15T18:23:46.473Z,1.23
2023-04-15T18:26:15.369Z,1.40
2023-04-15T18:28:43.905Z,1.60
2023-04-15T18:31:14.048Z,1.63
2023-04-15T18:33:42.536Z,1.50
2023-04-15T18:36:11.645Z,1.60
2023-04-15T18:38:40.541Z,1.67
2023-04-15T18:41:10.136Z,1.67
2023-04-15T18:43:39.153Z,2.03
2023-04-15T18:46:11.866Z,2.47
2023-04-15T18:48:42.047Z,2.20
2023-04-15T18:51:10.972Z,1.93
2023-04-15T18:53:39.724Z,1.70
2023-04-15T18:56:08.992Z,1.60
2023-04-15T18:59:27.879Z,1.87
2023-04-15T19:01:26.838Z,1.70
2023-04-15T19:03:56.887Z,1.70
2023-04-15T19:06:27.259Z,2.00
2023-04-15T19:08:58.563Z,1.67
2023-04-15T19:11:27.457Z,1.80
2023-04-15T19:13:56.183Z,1.50
2023-04-15T19:16:25.076Z,1.70
2023-04-15T19:18:53.934Z,2.27
2023-04-15T19:21:23.998Z,2.10
2023-04-15T19:23:52.900Z,1.80
2023-04-15T19:26:21.331Z,1.97
2023-04-15T19:28:49.972Z,1.90
2023-04-15T19:31:18.932Z,1.90
2023-04-15T19:33:47.501Z,1.93
2023-04-15T19:36:16.194Z,3.17
2023-04-15T19:38:46.527Z,5.37
2023-04-15T19:41:15.182Z,2.83
2023-04-15T19:43:43.857Z,1.83
2023-04-15T19:46:13.373Z,1.70
2023-04-15T19:48:42.413Z,2.10
2023-04-15T19:51:11.136Z,1.70
2023-04-15T19:53:40.308Z,1.90
2023-04-15T19:56:10.992Z,2.13
2023-04-15T19:58:39.672Z,2.00
2023-04-15T20:01:08.464Z,2.40
2023-04-15T20:03:37.407Z,4.23
2023-04-15T20:06:06.692Z,2.20
2023-04-15T20:08:35.406Z,1.87
2023-04-15T20:11:03.873Z,2.20
2023-04-15T20:13:34.417Z,2.50
2023-04-15T20:16:03.186Z,2.47
2023-04-15T20:18:31.848Z,2.90
2023-04-15T20:21:00.402Z,2.77
2023-04-15T20:23:29.032Z,2.37
2023-04-15T20:25:58.639Z,2.10
2023-04-15T20:28:27.817Z,2.37
2023-04-15T20:30:57.927Z,1.93
2023-04-15T20:33:27.594Z,2.23
2023-04-15T20:35:58.967Z,2.13
2023-04-15T20:38:27.536Z,2.57
2023-04-15T20:40:57.188Z,1.93
2023-04-15T20:43:26.166Z,2.47
2023-04-15T20:46:02.159Z,2.10
2023-04-15T20:48:35.822Z,1.93
2023-04-15T20:51:04.408Z,2.00
2023-04-15T20:53:33.154Z,2.20
2023-04-15T20:56:02.869Z,1.97
2023-04-15T20:58:31.696Z,2.47
2023-04-15T21:01:02.366Z,2.37
2023-04-15T21:03:31.061Z,2.30
2023-04-15T21:05:59.988Z,2.37
2023-04-15T21:08:31.907Z,2.30
2023-04-15T21:11:00.775Z,2.37
2023-04-15T21:13:29.496Z,2.20
2023-04-15T21:15:58.127Z,3.00
2023-04-15T21:18:28.233Z,3.83
2023-04-15T21:21:00.258Z,5.07
2023-04-15T21:23:30.090Z,3.20
2023-04-15T21:25:59.068Z,3.97
2023-04-15T21:28:30.249Z,3.33
2023-04-15T21:30:59.318Z,3.83
2023-04-15T21:33:29.674Z,3.20
2023-04-15T21:35:58.064Z,6.47
2023-04-15T21:38:29.013Z,5.43
2023-04-15T21:40:58.453Z,4.93
2023-04-15T21:43:27.321Z,3.93
2023-04-15T21:46:24.138Z,5.47
2023-04-15T21:48:47.573Z,2.93
2023-04-15T21:51:16.528Z,3.63
2023-04-15T21:53:45.002Z,3.57
2023-04-15T21:56:13.877Z,3.67
2023-04-15T21:58:43.050Z,5.60
2023-04-15T22:01:11.804Z,2.93
2023-04-15T22:03:40.784Z,3.87
2023-04-15T22:06:11.584Z,5.03
2023-04-15T22:08:52.346Z,3.70
2023-04-15T22:11:27.475Z,3.70
2023-04-15T22:13:57.398Z,5.57
2023-04-15T22:16:26.731Z,4.10
2023-04-15T22:18:56.006Z,4.60
2023-04-15T22:21:27.424Z,4.20
2023-04-15T22:24:37.189Z,3.50
2023-04-15T22:26:45.125Z,5.00
2023-04-15T22:29:13.685Z,3.73
2023-04-15T22:31:42.505Z,3.03
2023-04-15T22:34:11.295Z,3.00
2023-04-15T22:36:41.358Z,3.23
2023-04-15T22:39:09.847Z,3.03
2023-04-15T22:41:38.276Z,3.20
2023-04-15T22:44:07.336Z,2.70
2023-04-15T22:46:36.192Z,2.80
2023-04-15T22:49:04.874Z,2.50
2023-04-15T22:51:34.098Z,2.13
2023-04-15T22:54:04.410Z,2.97
2023-04-15T22:56:33.444Z,3.23
2023-04-15T22:59:02.072Z,3.60
2023-04-15T23:01:32.430Z,3.40
2023-04-15T23:04:06.530Z,3.50
2023-04-15T23:06:39.142Z,2.73
2023-04-15T23:09:09.268Z,3.50
2023-04-15T23:11:37.924Z,3.50
2023-04-15T23:14:06.527Z,2.90
2023-04-15T23:16:35.185Z,3.00
2023-04-15T23:19:04.094Z,3.20
2023-04-15T23:21:32.808Z,3.30
2023-04-15T23:24:01.356Z,4.23
2023-04-15T23:26:31.789Z,2.83
2023-04-15T23:29:00.353Z,2.80
2023-04-15T23:31:29.319Z,3.00
2023-04-15T23:33:58.155Z,3.13
2023-04-15T23:36:27.352Z,3.10
2023-04-15T23:38:56.280Z,2.70
2023-04-15T23:41:24.814Z,2.77
2023-04-15T23:43:54.872Z,2.03
2023-04-15T23:46:23.479Z,2.40
2023-04-15T23:48:52.281Z,2.80
2023-04-15T23:51:21.018Z,3.10
2023-04-15T23:53:52.396Z,2.70
2023-04-15T23:56:21.718Z,2.70
2023-04-15T23:58:50.379Z,2.70
